Time;durP1;ratioP1;P1;durP2;ratioP2;P2;SDS_P1;SDS_P2;PMS_P1;PMS_P2;Temp;Humidity;BMP_temperature;BMP_pressure;BME280_temperature;BME280_humidity;BME280_pressure;Samples;Min_cycle;Max_cycle;Signal;HPM_P1;HPM_P2
2021/06/14 00:01:34;;;;;;;4.20;1.40;;;;;;;16.62;49.20;93813.69;6171714;23;20524;-79
2021/06/14 00:03:59;;;;;;;8.45;1.90;;;;;;;16.51;49.06;93815.97;6176289;23;20469;-83
2021/06/14 00:06:25;;;;;;;6.38;2.60;;;;;;;16.50;49.11;93817.06;6198167;23;20021;-81
2021/06/14 00:08:51;;;;;;;5.35;1.77;;;;;;;16.53;49.36;93813.75;6170728;23;20447;-79
2021/06/14 00:11:17;;;;;;;7.00;2.15;;;;;;;16.58;49.96;93816.25;6198073;23;20020;-80
2021/06/14 00:13:43;;;;;;;3.05;1.80;;;;;;;16.55;49.85;93819.53;6199844;23;20459;-79
2021/06/14 00:16:09;;;;;;;5.45;2.20;;;;;;;16.48;50.10;93816.59;6197193;23;20011;-79
2021/06/14 00:18:36;;;;;;;4.15;1.63;;;;;;;16.54;49.96;93820.63;6212341;23;20497;-80
2021/06/14 00:21:09;;;;;;;7.45;1.90;;;;;;;16.44;50.16;93821.03;6171072;23;20028;-80
2021/06/14 00:23:36;;;;;;;4.07;2.60;;;;;;;16.41;50.74;93801.13;6200941;23;20044;-81
2021/06/14 00:26:07;;;;;;;2.60;1.85;;;;;;;16.17;50.69;93790.31;6203975;23;20012;-81
2021/06/14 00:28:33;;;;;;;6.00;2.58;;;;;;;16.33;50.85;93806.50;6197327;23;20091;-81
2021/06/14 00:30:58;;;;;;;5.25;1.90;;;;;;;16.27;50.93;93794.47;6211415;23;20083;-81
2021/06/14 00:33:24;;;;;;;7.07;2.17;;;;;;;16.26;51.14;93798.25;6193551;23;20123;-80
2021/06/14 00:35:51;;;;;;;4.97;2.15;;;;;;;16.25;51.64;93802.00;6200830;23;20017;-80
2021/06/14 00:38:17;;;;;;;7.38;2.13;;;;;;;16.34;51.38;93792.06;6199317;23;20024;-81
2021/06/14 00:40:43;;;;;;;4.75;2.03;;;;;;;16.32;51.27;93794.28;6208315;23;20039;-80
2021/06/14 00:43:10;;;;;;;3.88;2.00;;;;;;;16.30;51.75;93796.50;6207038;23;20034;-80
2021/06/14 00:45:40;;;;;;;3.38;2.13;;;;;;;16.26;51.45;93788.34;6212188;23;20431;-78
2021/06/14 00:48:06;;;;;;;12.85;2.28;;;;;;;16.34;51.63;93789.41;6200208;23;20395;-80
2021/06/14 00:50:45;;;;;;;9.40;2.60;;;;;;;16.32;51.65;93791.63;6200002;23;20016;-81
2021/06/14 00:53:20;;;;;;;2.33;1.88;;;;;;;16.32;51.75;93791.63;6205385;23;20079;-80
2021/06/14 00:55:46;;;;;;;3.95;2.38;;;;;;;16.21;52.10;93780.56;6204000;23;20068;-81
2021/06/14 00:58:13;;;;;;;3.85;1.95;;;;;;;16.27;52.08;93783.81;6172838;23;20443;-79
2021/06/14 01:00:39;;;;;;;5.28;2.22;;;;;;;16.21;52.16;93777.09;6213625;23;20405;-80
2021/06/14 01:03:05;;;;;;;5.93;2.15;;;;;;;16.27;52.69;93784.56;6199191;23;20009;-80
2021/06/14 01:05:36;;;;;;;5.40;2.00;;;;;;;16.23;52.42;93786.31;6201708;23;20013;-80
2021/06/14 01:08:01;;;;;;;5.63;2.17;;;;;;;16.20;52.50;93778.97;6206953;23;20051;-80
2021/06/14 01:10:26;;;;;;;3.10;2.72;;;;;;;16.22;52.82;93778.66;6198154;23;20454;-82
2021/06/14 01:13:07;;;;;;;10.90;2.63;;;;;;;16.21;52.87;93785.09;6199793;23;20367;-79
2021/06/14 01:15:49;;;;;;;4.00;2.13;;;;;;;16.16;52.96;93774.63;6199699;23;20114;-81
2021/06/14 01:18:18;;;;;;;4.00;2.25;;;;;;;16.14;53.02;93774.16;6194510;23;20020;-80
2021/06/14 01:20:51;;;;;;;6.00;2.55;;;;;;;16.14;52.97;93779.47;6203318;23;20062;-81
2021/06/14 01:23:44;;;;;;;5.45;2.47;;;;;;;16.16;53.17;93767.41;6203521;23;20052;-80
2021/06/14 01:26:19;;;;;;;4.65;2.88;;;;;;;16.07;53.29;93763.22;6205217;23;20099;-81
2021/06/14 01:28:56;;;;;;;4.72;2.45;;;;;;;15.98;53.70;93764.03;6173194;23;20013;-81
2021/06/14 01:31:23;;;;;;;4.28;2.80;;;;;;;15.91;53.60;93755.00;6207187;23;20410;-79
2021/06/14 01:33:50;;;;;;;3.67;2.53;;;;;;;16.00;53.99;93753.84;6210525;23;20435;-79
2021/06/14 01:36:19;;;;;;;4.25;2.05;;;;;;;16.00;53.55;93759.19;6196537;23;20016;-80
2021/06/14 01:38:47;;;;;;;4.60;2.33;;;;;;;15.98;53.94;93760.59;6198278;23;20095;-80
2021/06/14 01:41:13;;;;;;;5.93;2.40;;;;;;;15.96;53.81;93749.50;6201836;23;20039;-80
2021/06/14 01:43:41;;;;;;;5.85;2.60;;;;;;;15.91;54.04;93750.47;6205628;23;20016;-80
2021/06/14 01:46:09;;;;;;;5.70;2.58;;;;;;;15.98;53.93;93765.94;6207430;23;20004;-80
2021/06/14 01:48:37;;;;;;;4.57;2.05;;;;;;;15.90;53.86;93764.88;6212160;23;20394;-80
2021/06/14 01:51:05;;;;;;;3.63;2.70;;;;;;;15.92;54.25;93765.34;6195397;23;20124;-80
2021/06/14 01:53:31;;;;;;;7.00;2.38;;;;;;;15.97;54.07;93765.16;6169160;23;20028;-80
2021/06/14 01:55:58;;;;;;;2.55;2.35;;;;;;;16.02;53.78;93770.31;6198290;23;20020;-82
2021/06/14 01:58:24;;;;;;;5.57;2.70;;;;;;;16.03;53.97;93777.19;6205039;23;20317;-80
2021/06/14 02:00:50;;;;;;;3.80;2.42;;;;;;;16.07;53.48;93771.22;6212217;23;20001;-80
2021/06/14 02:03:17;;;;;;;9.43;3.17;;;;;;;16.01;54.37;93766.09;6198908;23;20380;-79
2021/06/14 02:05:43;;;;;;;4.50;2.38;;;;;;;15.97;54.33;93769.72;6169633;23;20033;-80
2021/06/14 02:08:11;;;;;;;2.80;2.20;;;;;;;15.99;53.92;93778.94;6198261;23;20123;-80
2021/06/14 02:10:37;;;;;;;8.23;2.75;;;;;;;15.91;54.42;93774.44;6172263;23;20009;-80
2021/06/14 02:13:04;;;;;;;4.38;2.42;;;;;;;15.88;54.87;93764.41;6207449;23;20062;-79
2021/06/14 02:15:29;;;;;;;4.07;2.20;;;;;;;15.87;54.38;93770.88;6172733;23;20103;-80
2021/06/14 02:17:57;;;;;;;4.85;2.50;;;;;;;15.88;54.99;93772.41;6172546;23;20527;-80
2021/06/14 02:20:23;;;;;;;6.72;2.47;;;;;;;15.84;55.07;93765.38;6171229;23;20016;-79
2021/06/14 02:22:49;;;;;;;6.68;2.47;;;;;;;15.86;55.49;93774.63;6206804;23;20066;-81
2021/06/14 02:25:15;;;;;;;4.32;2.58;;;;;;;15.86;54.95;93774.63;6199131;23;20004;-79
2021/06/14 02:27:41;;;;;;;7.00;3.08;;;;;;;15.86;55.48;93784.50;6175748;23;20009;-80
2021/06/14 02:30:17;;;;;;;5.50;2.58;;;;;;;15.96;54.79;93781.47;6198893;23;20424;-79
2021/06/14 02:32:42;;;;;;;;;;;;;;;15.83;55.29;93777.91;6172876;23;20019;-79
2021/06/14 02:35:09;;;;;;;7.65;3.22;;;;;;;15.82;55.49;93783.59;6171854;23;20262;-80
2021/06/14 02:37:38;;;;;;;5.38;2.80;;;;;;;15.78;55.61;93780.00;6207847;23;20043;-80
2021/06/14 02:40:06;;;;;;;5.40;2.40;;;;;;;15.80;55.43;93781.22;6199002;23;20039;-80
2021/06/14 02:42:32;;;;;;;8.43;3.08;;;;;;;15.80;55.72;93775.91;6201732;23;20453;-80
2021/06/14 02:44:57;;;;;;;5.72;2.78;;;;;;;15.84;55.36;93771.50;6200110;23;20016;-80
2021/06/14 02:47:23;;;;;;;3.67;2.83;;;;;;;15.77;55.78;93771.22;6197499;23;20453;-80
2021/06/14 02:49:50;;;;;;;5.78;2.63;;;;;;;15.81;55.45;93771.38;6170864;23;20008;-78
2021/06/14 02:52:17;;;;;;;7.85;2.97;;;;;;;15.67;55.88;93782.25;6208479;23;19996;-81
2021/06/14 02:54:58;;;;;;;9.80;2.80;;;;;;;15.65;55.95;93765.78;6211486;23;20004;-80
2021/06/14 02:57:29;;;;;;;4.55;2.80;;;;;;;15.57;56.10;93766.63;6198903;23;20012;-81
2021/06/14 02:59:55;;;;;;;8.15;3.15;;;;;;;15.43;56.37;93761.47;6173170;23;20103;-80
2021/06/14 03:02:23;;;;;;;6.47;2.85;;;;;;;15.44;56.65;93771.00;6198345;23;20013;-80
2021/06/14 03:04:49;;;;;;;6.72;3.20;;;;;;;15.51;56.40;93775.88;6204693;23;20474;-80
2021/06/14 03:07:19;;;;;;;4.13;2.67;;;;;;;15.50;56.67;93776.94;6171448;23;20382;-80
2021/06/14 03:09:44;;;;;;;8.25;2.47;;;;;;;15.50;56.11;93782.25;6197711;23;20019;-80
2021/06/14 03:12:10;;;;;;;6.05;2.53;;;;;;;15.46;57.00;93771.47;6170241;23;20017;-79
2021/06/14 03:14:36;;;;;;;4.90;3.10;;;;;;;15.47;56.84;93772.25;6195899;23;20467;-79
2021/06/14 03:17:04;;;;;;;4.28;2.35;;;;;;;15.81;56.28;93774.81;6173699;23;20467;-81
2021/06/14 03:19:29;;;;;;;6.30;3.13;;;;;;;16.20;54.82;93783.53;6207735;23;20092;-80
2021/06/14 03:21:55;;;;;;;6.30;2.63;;;;;;;16.47;53.70;93775.81;6213877;23;20119;-80
2021/06/14 03:24:23;;;;;;;5.07;2.70;;;;;;;16.66;53.15;93786.06;6202000;23;20090;-81
2021/06/14 03:26:48;;;;;;;8.15;2.63;;;;;;;16.98;52.46;93781.06;6204218;23;20028;-80
2021/06/14 03:29:20;;;;;;;6.97;2.38;;;;;;;17.23;51.66;93785.38;6198279;23;20371;-80
2021/06/14 03:31:48;;;;;;;6.80;2.60;;;;;;;17.25;51.62;93778.59;6209150;23;20070;-79
2021/06/14 03:34:14;;;;;;;6.60;2.60;;;;;;;17.13;51.95;93778.56;6198803;23;20343;-80
2021/06/14 03:36:41;;;;;;;6.80;2.05;;;;;;;17.10;52.12;93762.44;6205648;23;20035;-80
2021/06/14 03:39:07;;;;;;;3.95;2.42;;;;;;;17.05;52.62;93771.44;6174059;23;20046;-80
2021/06/14 03:41:33;;;;;;;4.60;2.20;;;;;;;17.03;52.59;93768.31;6202002;23;20022;-79
2021/06/14 03:44:02;;;;;;;5.85;2.35;;;;;;;16.87;52.60;93776.13;6207641;23;20020;-80
2021/06/14 03:46:28;;;;;;;6.07;2.42;;;;;;;17.07;52.45;93779.09;6198231;23;20012;-79
2021/06/14 03:48:53;;;;;;;5.00;2.22;;;;;;;17.26;52.09;93768.69;6214919;23;20086;-80
2021/06/14 03:51:19;;;;;;;3.17;2.42;;;;;;;17.08;52.08;93773.44;6202895;23;20347;-79
2021/06/14 03:53:56;;;;;;;6.07;3.38;;;;;;;16.88;53.16;93776.91;6173821;23;20103;-80
2021/06/14 03:56:23;;;;;;;4.35;2.33;;;;;;;16.94;52.48;93764.16;6197040;23;20039;-80
2021/06/14 03:58:48;;;;;;;6.10;2.40;;;;;;;16.85;53.29;93762.34;6201397;23;20581;-80
2021/06/14 04:01:13;;;;;;;4.10;2.60;;;;;;;17.00;52.53;93778.88;6175312;23;20008;-80
2021/06/14 04:03:40;;;;;;;5.00;2.70;;;;;;;16.92;52.32;93769.03;6204254;23;20036;-79
2021/06/14 04:06:05;;;;;;;6.40;2.53;;;;;;;17.03;52.74;93767.53;6173841;23;20506;-79
2021/06/14 04:08:31;;;;;;;3.60;2.53;;;;;;;17.58;51.61;93759.88;6200895;23;20139;-78
2021/06/14 04:10:56;;;;;;;3.35;1.95;;;;;;;18.41;49.37;93766.66;6205721;23;20099;-80
2021/06/14 04:13:22;;;;;;;3.55;1.55;;;;;;;19.07;46.73;93755.50;6173951;23;20013;-82
2021/06/14 04:15:47;;;;;;;3.30;1.60;;;;;;;19.76;45.08;93763.84;6212252;23;20008;-80
2021/06/14 04:18:13;;;;;;;4.55;1.90;;;;;;;20.36;43.53;93761.03;6199740;23;20012;-80
2021/06/14 04:20:38;;;;;;;5.50;1.75;;;;;;;20.80;42.23;93757.00;6203465;23;20047;-80
2021/06/14 04:23:04;;;;;;;2.97;2.17;;;;;;;21.56;40.54;93768.81;6206043;23;20024;-80
2021/06/14 04:25:30;;;;;;;2.67;1.52;;;;;;;22.04;39.87;93767.34;6208670;23;20047;-79
2021/06/14 04:27:56;;;;;;;6.38;1.70;;;;;;;21.71;40.27;93756.38;6211658;23;20082;-80
2021/06/14 04:30:21;;;;;;;2.70;1.40;;;;;;;21.45;40.46;93765.19;6172750;23;20338;-80
2021/06/14 04:32:48;;;;;;;3.70;1.73;;;;;;;21.18;41.55;93765.06;6200124;23;20071;-80
2021/06/14 04:35:14;;;;;;;2.00;1.40;;;;;;;21.77;40.03;93763.81;6197724;23;20030;-79
2021/06/14 04:37:39;;;;;;;6.63;1.40;;;;;;;22.60;39.03;93756.63;6171808;23;20019;-80
2021/06/14 04:40:06;;;;;;;5.75;1.40;;;;;;;23.45;37.69;93752.31;6199031;23;20004;-80
2021/06/14 04:42:32;;;;;;;3.53;1.45;;;;;;;23.62;36.49;93762.47;6201099;23;19996;-80
2021/06/14 04:44:58;;;;;;;1.50;1.40;;;;;;;23.85;35.54;93753.44;6173180;23;20779;-81
2021/06/14 04:47:24;;;;;;;2.22;1.10;;;;;;;24.41;36.06;93759.28;6198252;23;20048;-80
2021/06/14 04:49:50;;;;;;;4.63;1.35;;;;;;;25.11;34.51;93752.75;6204188;23;20023;-79
2021/06/14 04:52:15;;;;;;;6.82;1.23;;;;;;;25.28;33.67;93752.00;6200230;23;20004;-79
2021/06/14 04:54:41;;;;;;;2.90;1.00;;;;;;;25.50;33.59;93757.50;6209767;23;20466;-80
2021/06/14 04:57:07;;;;;;;5.50;1.30;;;;;;;25.82;33.15;93752.91;6200500;23;20025;-79
2021/06/14 04:59:33;;;;;;;1.67;1.02;;;;;;;26.37;31.45;93749.84;6172354;23;20043;-81
2021/06/14 05:01:59;;;;;;;9.65;1.40;;;;;;;26.62;31.74;93750.59;6197333;23;20012;-79
2021/06/14 05:04:24;;;;;;;1.60;1.20;;;;;;;26.38;31.58;93746.00;6204111;23;20020;-80
2021/06/14 05:06:49;;;;;;;5.18;1.48;;;;;;;26.65;30.93;93761.41;6198198;23;20006;-80
2021/06/14 05:09:15;;;;;;;2.25;1.00;;;;;;;26.30;30.81;93766.88;6194488;23;20020;-79
2021/06/14 05:11:40;;;;;;;1.10;1.00;;;;;;;27.07;30.87;93771.38;6168340;23;20025;-79
2021/06/14 05:14:06;;;;;;;2.60;1.20;;;;;;;27.71;30.23;93776.53;6195946;23;20091;-80
2021/06/14 05:16:31;;;;;;;2.13;0.98;;;;;;;27.76;29.37;93775.38;6203852;23;20012;-80
2021/06/14 05:18:58;;;;;;;1.50;1.20;;;;;;;27.75;29.88;93776.53;6208518;23;20004;-80
2021/06/14 05:21:24;;;;;;;2.92;1.30;;;;;;;28.02;29.83;93775.56;6197559;23;20024;-80
2021/06/14 05:23:49;;;;;;;2.40;0.95;;;;;;;28.31;28.84;93769.94;6199194;23;20021;-80
2021/06/14 05:26:15;;;;;;;4.70;1.10;;;;;;;28.47;28.64;93770.19;6194205;23;20067;-79
2021/06/14 05:28:40;;;;;;;4.75;1.65;;;;;;;29.06;28.26;93764.56;6205222;23;20084;-80
2021/06/14 05:31:10;;;;;;;5.78;0.98;;;;;;;28.66;28.45;93774.28;6205203;23;20074;-83
2021/06/14 05:33:37;;;;;;;5.47;1.20;;;;;;;28.75;28.44;93758.31;6199789;23;20482;-79
2021/06/14 05:36:03;;;;;;;1.90;1.00;;;;;;;28.74;28.72;93754.81;6197129;23;20020;-80
2021/06/14 05:38:29;;;;;;;1.77;1.00;;;;;;;28.82;28.14;93753.56;6198215;23;20378;-80
2021/06/14 05:40:55;;;;;;;3.63;0.90;;;;;;;29.52;27.91;93748.47;6204780;23;20028;-79
2021/06/14 05:43:20;;;;;;;0.90;0.77;;;;;;;29.63;27.09;93756.50;6205932;23;20017;-79
2021/06/14 05:45:46;;;;;;;1.58;1.15;;;;;;;29.30;27.53;93758.06;6210339;23;20008;-79
2021/06/14 05:48:11;;;;;;;3.33;1.08;;;;;;;29.12;27.67;93757.53;6198877;23;20253;-79
2021/06/14 05:50:37;;;;;;;4.85;1.58;;;;;;;28.78;27.39;93744.66;6198332;23;20023;-80
2021/06/14 05:53:02;;;;;;;3.45;0.90;;;;;;;28.75;27.36;93750.13;6204501;23;20026;-81
2021/06/14 05:55:31;;;;;;;1.67;0.90;;;;;;;28.94;27.15;93752.25;6192685;23;20023;-82
2021/06/14 05:57:57;;;;;;;4.45;1.20;;;;;;;28.95;27.12;93747.59;6207588;23;20486;-80
2021/06/14 06:00:23;;;;;;;4.88;1.30;;;;;;;29.42;27.55;93743.19;6191580;23;20020;-80
2021/06/14 06:02:50;;;;;;;4.03;1.20;;;;;;;29.76;27.14;93748.56;6178836;23;20546;-81
2021/06/14 06:05:23;;;;;;;1.77;1.10;;;;;;;30.59;26.40;93735.97;6195266;23;20036;-79
2021/06/14 06:07:49;;;;;;;3.45;1.23;;;;;;;31.10;25.22;93740.88;6206091;23;20024;-80
2021/06/14 06:10:15;;;;;;;3.05;1.30;;;;;;;30.97;24.86;93737.22;6207568;23;20000;-79
2021/06/14 06:12:41;;;;;;;4.70;0.98;;;;;;;30.72;25.88;93745.09;6196806;23;20083;-82
2021/06/14 06:15:10;;;;;;;1.77;0.82;;;;;;;30.17;25.74;93742.88;6122981;23;20079;-81
2021/06/14 06:17:35;;;;;;;1.65;1.00;;;;;;;31.29;24.92;93740.09;6198922;23;20231;-81
2021/06/14 06:20:02;;;;;;;2.08;0.90;;;;;;;31.28;24.39;93735.81;6198820;23;20526;-82
2021/06/14 06:22:30;;;;;;;5.20;1.00;;;;;;;31.65;24.83;93736.66;6172634;23;20012;-81
2021/06/14 06:24:55;;;;;;;3.30;1.08;;;;;;;31.51;24.86;93731.47;6198432;23;20008;-80
2021/06/14 06:27:21;;;;;;;3.03;1.00;;;;;;;31.46;24.36;93732.75;6198980;23;20027;-81
2021/06/14 06:29:47;;;;;;;1.38;1.10;;;;;;;31.16;24.51;93744.66;6195019;23;20028;-80
2021/06/14 06:32:12;;;;;;;3.83;1.10;;;;;;;31.47;25.04;93747.16;6197215;23;20059;-80
2021/06/14 06:34:38;;;;;;;9.40;1.05;;;;;;;31.33;24.50;93745.47;6196750;23;20059;-79
2021/06/14 06:37:03;;;;;;;2.30;0.90;;;;;;;31.71;24.63;93748.63;6206177;23;20545;-82
2021/06/14 06:39:29;;;;;;;2.65;0.70;;;;;;;31.91;23.85;93741.16;6198597;23;20563;-81
2021/06/14 06:41:57;;;;;;;3.00;1.17;;;;;;;32.04;22.34;93742.00;6198903;23;20020;-81
2021/06/14 06:44:22;;;;;;;2.47;0.60;;;;;;;31.71;22.92;93748.63;6200976;23;20020;-81
2021/06/14 06:46:48;;;;;;;3.38;0.77;;;;;;;30.80;23.42;93746.50;6198450;23;20019;-80
2021/06/14 06:49:13;;;;;;;1.77;0.80;;;;;;;29.49;24.95;93749.28;6200437;23;20087;-81
2021/06/14 06:51:38;;;;;;;2.45;1.20;;;;;;;29.32;25.72;93747.59;6200528;23;20016;-81
2021/06/14 06:54:13;;;;;;;4.90;1.38;;;;;;;28.94;26.25;93746.81;6196475;23;20031;-82
2021/06/14 06:56:40;;;;;;;;;;;;;;;28.10;25.14;93748.38;6202072;23;20233;-81
2021/06/14 06:59:09;;;;;;;2.60;1.27;;;;;;;27.17;26.98;93748.13;6168180;23;19916;-81
2021/06/14 07:01:34;;;;;;;2.55;1.25;;;;;;;26.74;28.29;93744.75;6184087;23;20016;-82
2021/06/14 07:03:59;;;;;;;2.45;1.20;;;;;;;26.10;29.51;93739.38;6198093;23;20013;-83
2021/06/14 07:06:25;;;;;;;3.58;1.25;;;;;;;25.48;29.74;93743.56;6197954;23;20023;-81
2021/06/14 07:08:57;;;;;;;4.57;1.20;;;;;;;24.89;29.58;93735.66;6169292;23;20099;-81
2021/06/14 07:11:24;;;;;;;3.22;0.85;;;;;;;24.88;30.77;93744.13;6199172;23;20016;-82
2021/06/14 07:13:49;;;;;;;4.82;1.35;;;;;;;25.91;30.24;93737.06;6198533;23;20043;-83
2021/06/14 07:16:15;;;;;;;2.75;1.25;;;;;;;27.79;29.28;93729.19;6202033;23;20342;-80
2021/06/14 07:18:43;;;;;;;1.98;0.90;;;;;;;29.09;25.38;93721.00;6172500;23;20435;-80
2021/06/14 07:21:08;;;;;;;2.35;0.80;;;;;;;29.80;24.08;93732.91;6199094;23;20020;-82
2021/06/14 07:23:34;;;;;;;1.13;0.80;;;;;;;29.39;24.53;93716.75;6201794;23;20032;-81
2021/06/14 07:26:01;;;;;;;5.15;1.25;;;;;;;30.33;23.92;93716.53;6200512;23;20163;-82
2021/06/14 07:28:27;;;;;;;2.55;0.80;;;;;;;31.28;23.10;93722.16;6207876;23;20012;-80
2021/06/14 07:30:52;;;;;;;1.45;0.68;;;;;;;32.35;21.94;93726.06;6209794;23;20516;-80
2021/06/14 07:33:18;;;;;;;1.13;0.70;;;;;;;32.71;20.95;93723.19;6198710;23;20127;-82
2021/06/14 07:35:43;;;;;;;3.15;0.80;;;;;;;33.15;20.17;93732.56;6199031;23;20503;-81
2021/06/14 07:38:12;;;;;;;2.22;0.90;;;;;;;32.78;20.53;93727.72;6170878;23;20023;-81
2021/06/14 07:40:38;;;;;;;1.75;1.05;;;;;;;32.93;21.56;93732.38;6168162;23;20070;-82
2021/06/14 07:43:05;;;;;;;2.70;0.60;;;;;;;32.61;21.27;93732.41;6200053;23;20416;-81
2021/06/14 07:45:33;;;;;;;1.25;0.73;;;;;;;32.05;20.62;93729.09;6201139;23;20384;-82
2021/06/14 07:47:58;;;;;;;1.40;0.70;;;;;;;32.18;20.65;93727.25;6174105;23;20016;-84
2021/06/14 07:50:24;;;;;;;1.48;0.75;;;;;;;31.92;19.82;93726.25;6197117;23;20099;-83
2021/06/14 07:52:49;;;;;;;2.28;0.95;;;;;;;30.65;21.28;93726.88;6198001;23;20020;-83
2021/06/14 07:55:15;;;;;;;2.13;0.80;;;;;;;30.13;22.34;93719.19;6198180;23;20084;-83
2021/06/14 07:57:41;;;;;;;1.83;0.98;;;;;;;28.97;23.62;93718.06;6202507;23;19996;-85
2021/06/14 08:00:09;;;;;;;4.93;1.33;;;;;;;28.44;23.84;93711.97;6200534;23;20024;-85
2021/06/14 08:02:35;;;;;;;1.02;0.80;;;;;;;27.64;25.58;93722.31;6198502;23;20835;-84
2021/06/14 08:05:02;;;;;;;2.65;1.00;;;;;;;27.25;25.65;93729.88;6207026;23;20078;-83
2021/06/14 08:07:30;;;;;;;1.35;0.82;;;;;;;26.73;25.85;93719.56;6201263;23;20024;-83
2021/06/14 08:10:01;;;;;;;1.10;0.90;;;;;;;26.20;28.00;93719.66;6205352;23;20458;-83
2021/06/14 08:12:26;;;;;;;1.08;0.90;;;;;;;26.03;29.00;93725.09;6199603;23;20104;-82
2021/06/14 08:14:52;;;;;;;7.15;1.58;;;;;;;25.85;29.07;93725.84;6203454;23;20113;-82
2021/06/14 08:17:18;;;;;;;3.45;1.38;;;;;;;25.50;29.13;93735.84;6200660;23;20027;-82
2021/06/14 08:19:51;;;;;;;2.25;1.20;;;;;;;24.84;29.74;93744.09;6201882;23;20023;-83
2021/06/14 08:27:39;;;;;;;2.13;1.30;;;;;;;23.68;32.02;93750.22;6197188;23;20013;-82
2021/06/14 08:30:11;;;;;;;5.90;1.50;;;;;;;23.40;32.90;93749.13;6200236;23;20150;-82
2021/06/14 08:32:38;;;;;;;4.75;1.63;;;;;;;23.07;33.14;93760.69;6204774;23;20024;-83
2021/06/14 08:35:05;;;;;;;5.90;1.85;;;;;;;22.71;33.87;93757.59;6171739;23;20027;-82
2021/06/14 08:37:30;;;;;;;9.88;2.30;;;;;;;22.25;35.16;93759.59;6207996;23;20016;-81
2021/06/14 08:39:56;;;;;;;5.15;1.65;;;;;;;22.07;36.13;93755.88;6173086;23;20592;-84
2021/06/14 08:42:24;;;;;;;6.63;2.60;;;;;;;21.81;36.38;93764.63;6200926;23;20087;-80
2021/06/14 08:44:50;;;;;;;5.72;1.80;;;;;;;21.61;38.19;93760.44;6197453;23;20124;-82
2021/06/14 08:47:16;;;;;;;4.20;1.65;;;;;;;21.59;37.51;93765.44;6172897;23;20182;-82
2021/06/14 08:49:43;;;;;;;4.10;1.65;;;;;;;21.51;38.25;93766.41;6199801;23;20047;-80
2021/06/14 08:52:09;;;;;;;3.17;1.50;;;;;;;21.46;38.76;93770.19;6199045;23;20009;-84
2021/06/14 08:54:37;;;;;;;5.93;1.70;;;;;;;21.52;38.43;93768.75;6212490;23;20012;-84
2021/06/14 08:57:05;;;;;;;3.90;1.50;;;;;;;21.39;38.55;93758.53;6202529;23;20051;-83
2021/06/14 08:59:30;;;;;;;6.35;1.80;;;;;;;21.48;38.26;93756.38;6173101;23;20075;-81
2021/06/14 09:01:55;;;;;;;5.30;2.03;;;;;;;21.54;38.74;93749.59;6197982;23;20047;-83
2021/06/14 09:04:21;;;;;;;2.63;1.30;;;;;;;21.50;38.55;93746.06;6208610;23;20024;-83
2021/06/14 09:06:46;;;;;;;2.58;1.60;;;;;;;21.87;38.19;93746.28;6214344;23;20054;-81
2021/06/14 09:09:12;;;;;;;4.93;1.50;;;;;;;22.20;37.17;93741.06;6201066;23;20022;-85
2021/06/14 09:11:48;;;;;;;1.65;1.30;;;;;;;22.33;37.68;93736.25;6173389;23;20451;-81
2021/06/14 09:14:16;;;;;;;3.25;1.20;;;;;;;22.64;36.14;93735.91;6202960;23;20861;-82
2021/06/14 09:16:41;;;;;;;3.83;1.17;;;;;;;22.56;37.28;93739.66;6173406;23;20009;-82
2021/06/14 09:19:22;;;;;;;2.60;1.25;;;;;;;22.65;36.42;93744.75;6200443;23;20011;-82
2021/06/14 09:21:49;;;;;;;3.30;1.60;;;;;;;22.53;36.72;93734.22;6210596;23;20004;-82
2021/06/14 09:24:15;;;;;;;3.13;1.60;;;;;;;22.65;36.49;93729.38;6195894;23;20040;-83
2021/06/14 09:26:45;;;;;;;4.32;1.40;;;;;;;22.89;36.78;93734.31;6170159;23;20098;-81
2021/06/14 09:29:19;;;;;;;3.25;1.65;;;;;;;22.78;37.97;93746.09;6203118;23;20343;-82
2021/06/14 09:31:50;;;;;;;22.08;3.08;;;;;;;22.13;43.61;93759.03;6204721;23;20017;-82
2021/06/14 09:34:17;;;;;;;3.80;1.92;;;;;;;21.49;45.19;93763.31;6197099;23;20117;-81
2021/06/14 09:37:01;;;;;;;6.63;2.10;;;;;;;20.65;46.23;93779.31;6172975;23;20004;-83
2021/06/14 09:39:27;;;;;;;2.80;2.30;;;;;;;20.33;48.67;93783.22;6157563;23;20229;-82
2021/06/14 09:41:52;;;;;;;7.22;1.92;;;;;;;20.00;50.65;93792.38;6197890;23;20400;-85
2021/06/14 09:44:32;;;;;;;3.40;1.92;;;;;;;19.71;49.79;93782.09;6201026;23;20035;-86
2021/06/14 09:47:04;;;;;;;3.42;1.80;;;;;;;19.54;50.73;93796.63;6202783;23;20016;-84
2021/06/14 09:49:30;;;;;;;3.60;1.80;;;;;;;19.12;51.45;93801.59;6169704;23;20091;-84
2021/06/14 09:51:57;;;;;;;3.65;2.38;;;;;;;18.91;53.97;93801.00;6171792;23;20091;-86
2021/06/14 09:54:40;;;;;;;7.30;2.10;;;;;;;18.29;53.94;93791.50;6197964;23;20058;-79
2021/06/14 09:57:07;;;;;;;4.60;1.98;;;;;;;17.79;55.65;93789.19;6198638;23;20088;-79
2021/06/14 09:59:40;;;;;;;4.88;2.22;;;;;;;17.90;54.29;93784.19;6195829;23;20012;-79
2021/06/14 10:02:10;;;;;;;2.38;2.03;;;;;;;17.78;56.14;93778.84;6201805;23;20021;-80
2021/06/14 10:04:36;;;;;;;3.55;1.77;;;;;;;17.59;53.62;93774.78;6194650;23;20016;-80
2021/06/14 10:07:13;;;;;;;2.10;1.50;;;;;;;17.25;54.55;93780.50;6209535;23;20008;-79
2021/06/14 10:09:44;;;;;;;3.40;2.00;;;;;;;17.02;55.42;93772.06;6202190;23;20001;-80
2021/06/14 10:12:26;;;;;;;3.22;1.80;;;;;;;17.25;56.61;93785.84;6199103;23;20098;-80
2021/06/14 10:14:57;;;;;;;3.65;2.50;;;;;;;17.22;56.69;93786.50;6171540;23;20027;-80
2021/06/14 10:17:42;;;;;;;4.93;2.78;;;;;;;17.39;58.66;93789.00;6204459;23;20013;-80
2021/06/14 10:20:09;;;;;;;4.63;2.73;;;;;;;17.61;57.89;93809.22;6197233;23;20067;-79
2021/06/14 10:22:36;;;;;;;4.82;2.30;;;;;;;17.69;57.49;93801.09;6206788;23;20238;-78
2021/06/14 10:25:02;;;;;;;5.95;2.13;;;;;;;17.71;58.04;93814.91;6208969;23;20010;-80
2021/06/14 10:27:28;;;;;;;7.53;2.78;;;;;;;17.52;57.93;93790.56;6210862;23;20067;-80
2021/06/14 10:29:54;;;;;;;5.97;2.85;;;;;;;17.48;58.47;93800.38;6194778;23;20070;-80
2021/06/14 10:32:19;;;;;;;6.00;2.97;;;;;;;17.13;59.69;93791.13;6168954;23;20021;-81
2021/06/14 10:34:48;;;;;;;5.97;2.83;;;;;;;17.15;59.64;93781.69;6206566;23;20060;-78
2021/06/14 10:37:15;;;;;;;4.00;2.38;;;;;;;17.46;58.42;93778.53;6197883;23;20004;-79
2021/06/14 10:39:43;;;;;;;6.65;2.42;;;;;;;17.60;59.81;93780.91;6201628;23;20000;-79
2021/06/14 10:42:09;;;;;;;4.72;2.83;;;;;;;17.87;59.73;93779.50;6199136;23;20046;-78
2021/06/14 10:44:35;;;;;;;6.25;2.30;;;;;;;17.70;57.47;93775.94;6203055;23;20485;-79
2021/06/14 10:47:01;;;;;;;4.10;2.53;;;;;;;17.93;58.85;93770.16;6198928;23;20005;-78
2021/06/14 10:49:29;;;;;;;3.85;2.30;;;;;;;17.80;57.64;93772.03;6206997;23;20044;-78
2021/06/14 10:52:01;;;;;;;4.35;2.13;;;;;;;17.58;56.97;93754.53;6207763;23;20008;-79
2021/06/14 10:54:41;;;;;;;4.45;2.38;;;;;;;17.60;55.55;93765.66;6199544;23;20055;-80
2021/06/14 10:57:12;;;;;;;3.50;2.10;;;;;;;17.25;54.06;93757.22;6199746;23;20515;-78
2021/06/14 10:59:45;;;;;;;2.55;2.25;;;;;;;17.26;56.85;93750.78;6172544;23;20095;-78
2021/06/14 11:02:18;;;;;;;5.50;2.53;;;;;;;17.26;57.90;93758.00;6198224;23;20124;-80
2021/06/14 11:04:44;;;;;;;2.70;2.50;;;;;;;17.65;58.20;93756.66;6204307;23;20094;-79
2021/06/14 11:07:12;;;;;;;3.40;2.38;;;;;;;17.84;58.33;93751.53;6207660;23;20379;-81
2021/06/14 11:09:42;;;;;;;2.55;2.10;;;;;;;18.05;53.72;93754.88;6210022;23;20011;-81
2021/06/14 11:12:23;;;;;;;4.07;2.58;;;;;;;18.07;54.59;93751.88;6183721;23;20104;-80
2021/06/14 11:14:48;;;;;;;5.15;2.35;;;;;;;18.20;54.85;93748.06;6195185;23;20090;-82
2021/06/14 11:17:25;;;;;;;5.60;2.83;;;;;;;18.32;55.98;93747.28;6201879;23;20060;-80
2021/06/14 11:20:11;;;;;;;3.45;2.63;;;;;;;18.55;53.67;93740.31;6197093;23;20015;-79
2021/06/14 11:22:47;;;;;;;3.55;2.42;;;;;;;18.52;53.38;93731.03;6171627;23;20074;-80
2021/06/14 11:25:27;;;;;;;9.98;2.67;;;;;;;18.80;53.64;93730.31;6170070;23;20346;-83
2021/06/14 11:27:55;;;;;;;7.80;2.78;;;;;;;18.64;52.63;93727.59;6210514;23;20368;-81
2021/06/14 11:30:23;;;;;;;3.97;2.10;;;;;;;18.68;52.04;93736.47;6198903;23;20013;-82
2021/06/14 11:32:48;;;;;;;3.15;2.08;;;;;;;18.74;53.10;93732.47;6198404;23;20021;-81
2021/06/14 11:35:16;;;;;;;3.22;2.30;;;;;;;18.69;51.86;93723.88;6140711;23;20523;-81
2021/06/14 11:37:46;;;;;;;7.40;2.30;;;;;;;18.90;52.63;93714.53;6197948;23;20012;-83
2021/06/14 11:40:15;;;;;;;4.30;2.53;;;;;;;19.08;52.31;93715.00;6207430;23;20431;-80
2021/06/14 11:42:51;;;;;;;7.45;2.20;;;;;;;19.41;51.30;93712.78;6211150;23;20003;-82